San Diego International Airport
KSAN : rendu visible

Aérodrome :











RETROUVEZ-NOUS SUR...

 
LOGIN :

S'inscrire | Disclaimer

   EN    FR    IT 

 









Légende :    VFR   VFR Marginal   IFR   IFR Intensif   IFR Très Intensif
Visi : 
Plafond : 
>= 8 km
>= 3000ft
5 à 8 km
1000 à 3000 ft
1500m à 5 km
500 à 1000 ft
800 à 1500m
200 à 500 ft
< 800m
< 200 ft
Symboles :   Orages  Brouillard  Fortes neiges  Fortes précipitations  Vent > 20 kt






- Altitude de l'aérodrome : 17 ft
- Code IATA : SAN


KSAN - San Diego International

DERNIER METAR :
  • 180751Z 00000KT 10SM CLR 11/09 A3022 RMK AO2 SLP233 T01110089 401780106

METARs EXPIRÉS :
  • 180651Z 00000KT 10SM FEW250 11/09 A3023 RMK AO2 SLP234 T01110094
  • 180551Z 00000KT 10SM SCT250 12/10 A3022 RMK AO2 SLP232 T01220100 10167 20117 51005

TAF KSAN
Valide du 18 à 06h jusqu'au 19 à 12h UTC


180520Z 1806/1912 VRB04KT P6SM SCT250
FM182100 30008KT P6SM BKN250
FM190030 VRB05KT P6SM BKN250



MET'MAP, la Météo Aéronautique d'un coup d'oeil ! - Copyright ORBIFLY Décembre 2007 - Disclaimer

ORBIFLY MET'MAP TEAM :

Programmation & Développement : Alexandra Zaïnal
Sur une idée originale de : Baudouin d'Aumeries
Assistance à la programmation : Marc-Olivier Méhu
Soutien technique & logistique : Manuel Goepfert

Contact : metmap@orbifly.com




SOURCES & CREDITS :

   NOAA       Earth
Advisory